sensor_id;sensor_type;location;lat;lon;timestamp;P1;durP1;ratioP1;P2;durP2;ratioP2
80104;SDS011;69865;47.648;19.030;2024-02-23T00:00:29;4.27;;;4.27;;
80104;SDS011;69865;47.648;19.030;2024-02-23T00:01:01;4.27;;;4.27;;
80104;SDS011;69865;47.648;19.030;2024-02-23T00:01:33;4.03;;;4.03;;
80104;SDS011;69865;47.648;19.030;2024-02-23T00:02:05;4.27;;;4.27;;
80104;SDS011;69865;47.648;19.030;2024-02-23T00:02:37;4.13;;;4.13;;
80104;SDS011;69865;47.648;19.030;2024-02-23T00:03:10;4.10;;;4.10;;
80104;SDS011;69865;47.648;19.030;2024-02-23T00:03:42;4.17;;;4.17;;
80104;SDS011;69865;47.648;19.030;2024-02-23T00:04:14;4.07;;;4.07;;
80104;SDS011;69865;47.648;19.030;2024-02-23T00:04:46;4.37;;;4.37;;
80104;SDS011;69865;47.648;19.030;2024-02-23T00:05:18;4.37;;;4.33;;
80104;SDS011;69865;47.648;19.030;2024-02-23T00:05:50;3.97;;;3.90;;
80104;SDS011;69865;47.648;19.030;2024-02-23T00:06:22;3.73;;;3.63;;
80104;SDS011;69865;47.648;19.030;2024-02-23T00:06:54;3.97;;;3.87;;
80104;SDS011;69865;47.648;19.030;2024-02-23T00:07:26;3.90;;;3.83;;
80104;SDS011;69865;47.648;19.030;2024-02-23T00:07:58;4.07;;;3.97;;
80104;SDS011;69865;47.648;19.030;2024-02-23T00:08:30;3.63;;;3.57;;
80104;SDS011;69865;47.648;19.030;2024-02-23T00:09:02;4.50;;;4.40;;
80104;SDS011;69865;47.648;19.030;2024-02-23T00:09:34;4.47;;;4.37;;
80104;SDS011;69865;47.648;19.030;2024-02-23T00:10:07;4.57;;;4.53;;
80104;SDS011;69865;47.648;19.030;2024-02-23T00:10:41;4.30;;;4.27;;
80104;SDS011;69865;47.648;19.030;2024-02-23T00:11:13;4.27;;;4.17;;
80104;SDS011;69865;47.648;19.030;2024-02-23T00:11:45;3.93;;;3.87;;
80104;SDS011;69865;47.648;19.030;2024-02-23T00:12:17;3.63;;;3.53;;
80104;SDS011;69865;47.648;19.030;2024-02-23T00:12:49;4.33;;;4.23;;
80104;SDS011;69865;47.648;19.030;2024-02-23T00:13:21;4.37;;;4.27;;
80104;SDS011;69865;47.648;19.030;2024-02-23T00:13:53;3.93;;;3.83;;
80104;SDS011;69865;47.648;19.030;2024-02-23T00:14:25;3.80;;;3.70;;
80104;SDS011;69865;47.648;19.030;2024-02-23T00:14:58;4.20;;;4.07;;
80104;SDS011;69865;47.648;19.030;2024-02-23T00:15:30;4.07;;;3.93;;
80104;SDS011;69865;47.648;19.030;2024-02-23T00:16:02;4.40;;;4.30;;
80104;SDS011;69865;47.648;19.030;2024-02-23T00:16:37;4.10;;;4.00;;
80104;SDS011;69865;47.648;19.030;2024-02-23T00:17:09;4.00;;;3.97;;
80104;SDS011;69865;47.648;19.030;2024-02-23T00:17:42;3.97;;;3.97;;
80104;SDS011;69865;47.648;19.030;2024-02-23T00:18:14;3.90;;;3.83;;
80104;SDS011;69865;47.648;19.030;2024-02-23T00:18:46;4.00;;;3.93;;
80104;SDS011;69865;47.648;19.030;2024-02-23T00:19:18;4.10;;;4.07;;
80104;SDS011;69865;47.648;19.030;2024-02-23T00:19:50;4.00;;;4.00;;
80104;SDS011;69865;47.648;19.030;2024-02-23T00:20:22;3.83;;;3.83;;
80104;SDS011;69865;47.648;19.030;2024-02-23T00:20:54;3.70;;;3.70;;
80104;SDS011;69865;47.648;19.030;2024-02-23T00:21:26;3.53;;;3.43;;
80104;SDS011;69865;47.648;19.030;2024-02-23T00:21:59;3.43;;;3.33;;
80104;SDS011;69865;47.648;19.030;2024-02-23T00:22:32;3.77;;;3.70;;
80104;SDS011;69865;47.648;19.030;2024-02-23T00:23:04;3.77;;;3.77;;
80104;SDS011;69865;47.648;19.030;2024-02-23T00:23:36;3.83;;;3.83;;
80104;SDS011;69865;47.648;19.030;2024-02-23T00:24:08;4.27;;;4.27;;
80104;SDS011;69865;47.648;19.030;2024-02-23T00:24:41;3.63;;;3.63;;
80104;SDS011;69865;47.648;19.030;2024-02-23T00:25:13;3.37;;;3.37;;
80104;SDS011;69865;47.648;19.030;2024-02-23T00:25:47;3.27;;;3.27;;
80104;SDS011;69865;47.648;19.030;2024-02-23T00:26:19;3.60;;;3.60;;
80104;SDS011;69865;47.648;19.030;2024-02-23T00:26:51;3.73;;;3.73;;
80104;SDS011;69865;47.648;19.030;2024-02-23T00:27:23;4.00;;;4.00;;
80104;SDS011;69865;47.648;19.030;2024-02-23T00:27:55;4.50;;;4.50;;
80104;SDS011;69865;47.648;19.030;2024-02-23T00:28:27;4.43;;;4.40;;
80104;SDS011;69865;47.648;19.030;2024-02-23T00:29:02;4.13;;;4.07;;
80104;SDS011;69865;47.648;19.030;2024-02-23T00:29:34;3.73;;;3.73;;
80104;SDS011;69865;47.648;19.030;2024-02-23T00:30:07;4.00;;;4.00;;
80104;SDS011;69865;47.648;19.030;2024-02-23T00:30:39;3.87;;;3.87;;
80104;SDS011;69865;47.648;19.030;2024-02-23T00:31:11;4.00;;;4.00;;
80104;SDS011;69865;47.648;19.030;2024-02-23T00:31:44;4.07;;;4.00;;
80104;SDS011;69865;47.648;19.030;2024-02-23T00:32:16;4.33;;;4.27;;
80104;SDS011;69865;47.648;19.030;2024-02-23T00:32:48;4.00;;;3.90;;
80104;SDS011;69865;47.648;19.030;2024-02-23T00:33:20;4.27;;;4.17;;
80104;SDS011;69865;47.648;19.030;2024-02-23T00:33:52;4.27;;;4.17;;
80104;SDS011;69865;47.648;19.030;2024-02-23T00:34:24;4.30;;;4.20;;
80104;SDS011;69865;47.648;19.030;2024-02-23T00:34:57;3.90;;;3.80;;
80104;SDS011;69865;47.648;19.030;2024-02-23T00:35:29;3.83;;;3.73;;
80104;SDS011;69865;47.648;19.030;2024-02-23T00:36:01;3.53;;;3.53;;
80104;SDS011;69865;47.648;19.030;2024-02-23T00:36:33;3.83;;;3.83;;
80104;SDS011;69865;47.648;19.030;2024-02-23T00:37:05;3.73;;;3.63;;
80104;SDS011;69865;47.648;19.030;2024-02-23T00:37:37;4.00;;;3.90;;
80104;SDS011;69865;47.648;19.030;2024-02-23T00:38:09;4.07;;;3.93;;
80104;SDS011;69865;47.648;19.030;2024-02-23T00:38:41;3.77;;;3.73;;
80104;SDS011;69865;47.648;19.030;2024-02-23T00:39:14;3.87;;;3.80;;
80104;SDS011;69865;47.648;19.030;2024-02-23T00:39:46;3.77;;;3.73;;
80104;SDS011;69865;47.648;19.030;2024-02-23T00:40:18;4.07;;;4.07;;
80104;SDS011;69865;47.648;19.030;2024-02-23T00:40:51;3.97;;;3.97;;
80104;SDS011;69865;47.648;19.030;2024-02-23T00:41:23;3.70;;;3.70;;
80104;SDS011;69865;47.648;19.030;2024-02-23T00:41:55;3.70;;;3.70;;
80104;SDS011;69865;47.648;19.030;2024-02-23T00:42:28;4.03;;;4.03;;
80104;SDS011;69865;47.648;19.030;2024-02-23T00:43:00;4.13;;;4.13;;
80104;SDS011;69865;47.648;19.030;2024-02-23T00:43:37;3.83;;;3.80;;
80104;SDS011;69865;47.648;19.030;2024-02-23T00:44:09;4.30;;;4.27;;
80104;SDS011;69865;47.648;19.030;2024-02-23T00:44:42;4.30;;;4.20;;
80104;SDS011;69865;47.648;19.030;2024-02-23T00:45:14;4.30;;;4.23;;
80104;SDS011;69865;47.648;19.030;2024-02-23T00:45:46;3.83;;;3.83;;
80104;SDS011;69865;47.648;19.030;2024-02-23T00:46:18;3.63;;;3.63;;
80104;SDS011;69865;47.648;19.030;2024-02-23T00:46:50;3.73;;;3.73;;
80104;SDS011;69865;47.648;19.030;2024-02-23T00:47:22;3.77;;;3.77;;
80104;SDS011;69865;47.648;19.030;2024-02-23T00:47:55;4.13;;;4.13;;
80104;SDS011;69865;47.648;19.030;2024-02-23T00:48:27;4.00;;;4.00;;
80104;SDS011;69865;47.648;19.030;2024-02-23T00:48:59;3.60;;;3.60;;
80104;SDS011;69865;47.648;19.030;2024-02-23T00:49:31;3.57;;;3.57;;
80104;SDS011;69865;47.648;19.030;2024-02-23T00:50:03;3.60;;;3.60;;
80104;SDS011;69865;47.648;19.030;2024-02-23T00:50:39;3.90;;;3.87;;
80104;SDS011;69865;47.648;19.030;2024-02-23T00:51:11;3.93;;;3.93;;
80104;SDS011;69865;47.648;19.030;2024-02-23T00:51:43;4.03;;;3.97;;
80104;SDS011;69865;47.648;19.030;2024-02-23T00:52:15;4.07;;;4.07;;
80104;SDS011;69865;47.648;19.030;2024-02-23T00:52:47;4.57;;;4.50;;
80104;SDS011;69865;47.648;19.030;2024-02-23T00:53:20;4.77;;;4.67;;
80104;SDS011;69865;47.648;19.030;2024-02-23T00:53:52;4.60;;;4.47;;
80104;SDS011;69865;47.648;19.030;2024-02-23T00:54:24;4.33;;;4.23;;
80104;SDS011;69865;47.648;19.030;2024-02-23T00:54:56;4.90;;;4.80;;
80104;SDS011;69865;47.648;19.030;2024-02-23T00:55:28;4.57;;;4.43;;
80104;SDS011;69865;47.648;19.030;2024-02-23T00:56:02;4.57;;;4.43;;
80104;SDS011;69865;47.648;19.030;2024-02-23T00:56:34;4.40;;;4.30;;
80104;SDS011;69865;47.648;19.030;2024-02-23T00:57:21;5.10;;;4.97;;
80104;SDS011;69865;47.648;19.030;2024-02-23T00:57:53;4.80;;;4.70;;
80104;SDS011;69865;47.648;19.030;2024-02-23T00:58:25;4.53;;;4.43;;
80104;SDS011;69865;47.648;19.030;2024-02-23T00:58:57;4.17;;;4.10;;
80104;SDS011;69865;47.648;19.030;2024-02-23T00:59:29;4.37;;;4.33;;
80104;SDS011;69865;47.648;19.030;2024-02-23T01:00:01;4.33;;;4.20;;
80104;SDS011;69865;47.648;19.030;2024-02-23T01:00:34;4.50;;;4.47;;
80104;SDS011;69865;47.648;19.030;2024-02-23T01:01:06;4.57;;;4.47;;
80104;SDS011;69865;47.648;19.030;2024-02-23T01:01:38;5.07;;;4.93;;
80104;SDS011;69865;47.648;19.030;2024-02-23T01:02:10;4.63;;;4.50;;
80104;SDS011;69865;47.648;19.030;2024-02-23T01:02:42;4.47;;;4.47;;
80104;SDS011;69865;47.648;19.030;2024-02-23T01:03:14;4.37;;;4.33;;
80104;SDS011;69865;47.648;19.030;2024-02-23T01:03:46;4.53;;;4.47;;
80104;SDS011;69865;47.648;19.030;2024-02-23T01:04:21;4.50;;;4.43;;
80104;SDS011;69865;47.648;19.030;2024-02-23T01:04:56;4.20;;;4.20;;
80104;SDS011;69865;47.648;19.030;2024-02-23T01:05:28;4.27;;;4.27;;
80104;SDS011;69865;47.648;19.030;2024-02-23T01:06:01;4.20;;;4.20;;
80104;SDS011;69865;47.648;19.030;2024-02-23T01:06:33;4.40;;;4.40;;
80104;SDS011;69865;47.648;19.030;2024-02-23T01:07:05;4.33;;;4.27;;
80104;SDS011;69865;47.648;19.030;2024-02-23T01:07:37;4.20;;;4.20;;
80104;SDS011;69865;47.648;19.030;2024-02-23T01:08:09;4.00;;;4.00;;
80104;SDS011;69865;47.648;19.030;2024-02-23T01:08:41;4.00;;;4.00;;
80104;SDS011;69865;47.648;19.030;2024-02-23T01:09:13;3.70;;;3.70;;
80104;SDS011;69865;47.648;19.030;2024-02-23T01:09:46;3.93;;;3.93;;
80104;SDS011;69865;47.648;19.030;2024-02-23T01:10:18;3.97;;;3.97;;
80104;SDS011;69865;47.648;19.030;2024-02-23T01:10:50;3.93;;;3.93;;
80104;SDS011;69865;47.648;19.030;2024-02-23T01:11:23;4.10;;;4.07;;
80104;SDS011;69865;47.648;19.030;2024-02-23T01:11:56;3.97;;;3.87;;
80104;SDS011;69865;47.648;19.030;2024-02-23T01:12:28;3.57;;;3.53;;
80104;SDS011;69865;47.648;19.030;2024-02-23T01:13:00;3.97;;;3.87;;
80104;SDS011;69865;47.648;19.030;2024-02-23T01:13:32;4.20;;;4.10;;
80104;SDS011;69865;47.648;19.030;2024-02-23T01:14:05;4.00;;;3.90;;
80104;SDS011;69865;47.648;19.030;2024-02-23T01:14:37;4.10;;;3.97;;
80104;SDS011;69865;47.648;19.030;2024-02-23T01:15:09;4.27;;;4.17;;
80104;SDS011;69865;47.648;19.030;2024-02-23T01:15:41;4.30;;;4.13;;
80104;SDS011;69865;47.648;19.030;2024-02-23T01:16:13;4.60;;;4.43;;
80104;SDS011;69865;47.648;19.030;2024-02-23T01:16:45;4.67;;;4.50;;
80104;SDS011;69865;47.648;19.030;2024-02-23T01:17:17;4.43;;;4.30;;
80104;SDS011;69865;47.648;19.030;2024-02-23T01:17:50;4.57;;;4.43;;
80104;SDS011;69865;47.648;19.030;2024-02-23T01:18:22;4.07;;;3.93;;
80104;SDS011;69865;47.648;19.030;2024-02-23T01:18:54;4.77;;;4.57;;
80104;SDS011;69865;47.648;19.030;2024-02-23T01:19:26;4.53;;;4.40;;
80104;SDS011;69865;47.648;19.030;2024-02-23T01:19:58;4.27;;;4.17;;
80104;SDS011;69865;47.648;19.030;2024-02-23T01:20:31;4.10;;;4.03;;
80104;SDS011;69865;47.648;19.030;2024-02-23T01:21:03;4.33;;;4.27;;
80104;SDS011;69865;47.648;19.030;2024-02-23T01:21:35;4.23;;;4.13;;
80104;SDS011;69865;47.648;19.030;2024-02-23T01:22:08;4.27;;;4.17;;
80104;SDS011;69865;47.648;19.030;2024-02-23T01:22:40;3.97;;;3.90;;
80104;SDS011;69865;47.648;19.030;2024-02-23T01:23:13;4.03;;;3.97;;
80104;SDS011;69865;47.648;19.030;2024-02-23T01:23:45;4.70;;;4.70;;
80104;SDS011;69865;47.648;19.030;2024-02-23T01:24:17;4.23;;;4.23;;
80104;SDS011;69865;47.648;19.030;2024-02-23T01:24:49;4.20;;;4.20;;
80104;SDS011;69865;47.648;19.030;2024-02-23T01:25:21;4.23;;;4.23;;
80104;SDS011;69865;47.648;19.030;2024-02-23T01:25:53;4.37;;;4.30;;
80104;SDS011;69865;47.648;19.030;2024-02-23T01:26:26;4.37;;;4.27;;
80104;SDS011;69865;47.648;19.030;2024-02-23T01:26:59;4.27;;;4.20;;
80104;SDS011;69865;47.648;19.030;2024-02-23T01:27:31;4.27;;;4.20;;
80104;SDS011;69865;47.648;19.030;2024-02-23T01:28:03;4.17;;;4.03;;
80104;SDS011;69865;47.648;19.030;2024-02-23T01:28:35;4.40;;;4.33;;
80104;SDS011;69865;47.648;19.030;2024-02-23T01:29:07;4.73;;;4.70;;
80104;SDS011;69865;47.648;19.030;2024-02-23T01:29:39;4.27;;;4.13;;
80104;SDS011;69865;47.648;19.030;2024-02-23T01:30:12;4.63;;;4.47;;
80104;SDS011;69865;47.648;19.030;2024-02-23T01:30:44;4.57;;;4.43;;
80104;SDS011;69865;47.648;19.030;2024-02-23T01:31:16;4.67;;;4.50;;
80104;SDS011;69865;47.648;19.030;2024-02-23T01:31:48;4.53;;;4.40;;
80104;SDS011;69865;47.648;19.030;2024-02-23T01:32:21;4.07;;;3.97;;
80104;SDS011;69865;47.648;19.030;2024-02-23T01:32:53;3.83;;;3.83;;
80104;SDS011;69865;47.648;19.030;2024-02-23T01:33:26;4.13;;;4.13;;
80104;SDS011;69865;47.648;19.030;2024-02-23T01:33:58;4.50;;;4.50;;
80104;SDS011;69865;47.648;19.030;2024-02-23T01:34:30;4.40;;;4.40;;
80104;SDS011;69865;47.648;19.030;2024-02-23T01:35:03;4.07;;;4.07;;
80104;SDS011;69865;47.648;19.030;2024-02-23T01:35:35;4.40;;;4.40;;
80104;SDS011;69865;47.648;19.030;2024-02-23T01:36:08;4.37;;;4.37;;
80104;SDS011;69865;47.648;19.030;2024-02-23T01:36:40;4.53;;;4.53;;
80104;SDS011;69865;47.648;19.030;2024-02-23T01:37:12;3.90;;;3.83;;
80104;SDS011;69865;47.648;19.030;2024-02-23T01:37:44;4.00;;;3.90;;
80104;SDS011;69865;47.648;19.030;2024-02-23T01:38:16;4.30;;;4.20;;
80104;SDS011;69865;47.648;19.030;2024-02-23T01:38:48;4.10;;;4.03;;
80104;SDS011;69865;47.648;19.030;2024-02-23T01:39:20;4.00;;;3.87;;
80104;SDS011;69865;47.648;19.030;2024-02-23T01:39:52;4.47;;;4.37;;
80104;SDS011;69865;47.648;19.030;2024-02-23T01:40:24;4.67;;;4.60;;
80104;SDS011;69865;47.648;19.030;2024-02-23T01:40:56;4.63;;;4.53;;
80104;SDS011;69865;47.648;19.030;2024-02-23T01:41:29;4.27;;;4.23;;
80104;SDS011;69865;47.648;19.030;2024-02-23T01:42:02;4.60;;;4.53;;
80104;SDS011;69865;47.648;19.030;2024-02-23T01:42:34;4.17;;;4.13;;
80104;SDS011;69865;47.648;19.030;2024-02-23T01:43:06;4.03;;;4.03;;
80104;SDS011;69865;47.648;19.030;2024-02-23T01:43:38;4.23;;;4.23;;
80104;SDS011;69865;47.648;19.030;2024-02-23T01:44:10;4.37;;;4.37;;
80104;SDS011;69865;47.648;19.030;2024-02-23T01:44:43;4.60;;;4.60;;
80104;SDS011;69865;47.648;19.030;2024-02-23T01:45:15;4.60;;;4.60;;
80104;SDS011;69865;47.648;19.030;2024-02-23T01:45:48;4.47;;;4.47;;
80104;SDS011;69865;47.648;19.030;2024-02-23T01:46:20;4.00;;;4.00;;
80104;SDS011;69865;47.648;19.030;2024-02-23T01:46:52;4.07;;;4.07;;
80104;SDS011;69865;47.648;19.030;2024-02-23T01:47:24;4.37;;;4.30;;
80104;SDS011;69865;47.648;19.030;2024-02-23T01:47:58;4.37;;;4.37;;
80104;SDS011;69865;47.648;19.030;2024-02-23T01:48:32;4.17;;;4.17;;
80104;SDS011;69865;47.648;19.030;2024-02-23T01:49:05;4.47;;;4.40;;
80104;SDS011;69865;47.648;19.030;2024-02-23T01:49:39;4.53;;;4.53;;
80104;SDS011;69865;47.648;19.030;2024-02-23T01:50:12;4.63;;;4.63;;
80104;SDS011;69865;47.648;19.030;2024-02-23T01:50:44;4.47;;;4.40;;
80104;SDS011;69865;47.648;19.030;2024-02-23T01:51:16;4.20;;;4.13;;
80104;SDS011;69865;47.648;19.030;2024-02-23T01:51:48;4.13;;;4.13;;
80104;SDS011;69865;47.648;19.030;2024-02-23T01:52:21;4.27;;;4.27;;
80104;SDS011;69865;47.648;19.030;2024-02-23T01:52:58;4.27;;;4.27;;
80104;SDS011;69865;47.648;19.030;2024-02-23T01:53:32;4.03;;;4.03;;
80104;SDS011;69865;47.648;19.030;2024-02-23T01:54:04;4.27;;;4.23;;
80104;SDS011;69865;47.648;19.030;2024-02-23T01:54:37;4.43;;;4.40;;
80104;SDS011;69865;47.648;19.030;2024-02-23T01:55:10;4.57;;;4.53;;
80104;SDS011;69865;47.648;19.030;2024-02-23T01:55:42;4.67;;;4.67;;
80104;SDS011;69865;47.648;19.030;2024-02-23T01:56:17;4.73;;;4.67;;
80104;SDS011;69865;47.648;19.030;2024-02-23T01:56:53;4.47;;;4.47;;
80104;SDS011;69865;47.648;19.030;2024-02-23T01:57:27;4.37;;;4.37;;
80104;SDS011;69865;47.648;19.030;2024-02-23T01:58:19;5.17;;;5.03;;
80104;SDS011;69865;47.648;19.030;2024-02-23T01:58:53;4.67;;;4.50;;
80104;SDS011;69865;47.648;19.030;2024-02-23T01:59:27;4.70;;;4.53;;
80104;SDS011;69865;47.648;19.030;2024-02-23T02:00:00;4.53;;;4.47;;
80104;SDS011;69865;47.648;19.030;2024-02-23T02:00:33;4.53;;;4.47;;
80104;SDS011;69865;47.648;19.030;2024-02-23T02:01:06;4.30;;;4.27;;
80104;SDS011;69865;47.648;19.030;2024-02-23T02:01:38;4.30;;;4.23;;
80104;SDS011;69865;47.648;19.030;2024-02-23T02:02:11;4.43;;;4.33;;
80104;SDS011;69865;47.648;19.030;2024-02-23T02:02:44;4.43;;;4.23;;
80104;SDS011;69865;47.648;19.030;2024-02-23T02:03:16;4.57;;;4.43;;
80104;SDS011;69865;47.648;19.030;2024-02-23T02:03:48;5.00;;;4.87;;
80104;SDS011;69865;47.648;19.030;2024-02-23T02:04:21;4.73;;;4.63;;
80104;SDS011;69865;47.648;19.030;2024-02-23T02:04:53;5.07;;;4.93;;
80104;SDS011;69865;47.648;19.030;2024-02-23T02:05:25;4.97;;;4.83;;
80104;SDS011;69865;47.648;19.030;2024-02-23T02:05:57;4.70;;;4.57;;
80104;SDS011;69865;47.648;19.030;2024-02-23T02:06:30;4.73;;;4.70;;
80104;SDS011;69865;47.648;19.030;2024-02-23T02:07:05;4.87;;;4.87;;
80104;SDS011;69865;47.648;19.030;2024-02-23T02:07:38;4.37;;;4.37;;
80104;SDS011;69865;47.648;19.030;2024-02-23T02:08:12;4.67;;;4.60;;
80104;SDS011;69865;47.648;19.030;2024-02-23T02:08:44;4.73;;;4.73;;
80104;SDS011;69865;47.648;19.030;2024-02-23T02:09:17;4.80;;;4.80;;
80104;SDS011;69865;47.648;19.030;2024-02-23T02:09:49;4.37;;;4.37;;
80104;SDS011;69865;47.648;19.030;2024-02-23T02:10:24;4.77;;;4.73;;
80104;SDS011;69865;47.648;19.030;2024-02-23T02:10:56;4.10;;;4.10;;
80104;SDS011;69865;47.648;19.030;2024-02-23T02:11:28;4.40;;;4.40;;
80104;SDS011;69865;47.648;19.030;2024-02-23T02:12:02;4.53;;;4.43;;
80104;SDS011;69865;47.648;19.030;2024-02-23T02:12:35;4.60;;;4.50;;
80104;SDS011;69865;47.648;19.030;2024-02-23T02:13:07;4.63;;;4.50;;
80104;SDS011;69865;47.648;19.030;2024-02-23T02:13:39;4.70;;;4.63;;
80104;SDS011;69865;47.648;19.030;2024-02-23T02:14:11;4.70;;;4.70;;
80104;SDS011;69865;47.648;19.030;2024-02-23T02:14:43;4.40;;;4.37;;
80104;SDS011;69865;47.648;19.030;2024-02-23T02:15:15;4.33;;;4.33;;
80104;SDS011;69865;47.648;19.030;2024-02-23T02:15:47;4.50;;;4.50;;
80104;SDS011;69865;47.648;19.030;2024-02-23T02:16:19;4.73;;;4.73;;
80104;SDS011;69865;47.648;19.030;2024-02-23T02:16:51;4.83;;;4.83;;
80104;SDS011;69865;47.648;19.030;2024-02-23T02:17:24;5.07;;;5.07;;
80104;SDS011;69865;47.648;19.030;2024-02-23T02:17:57;4.50;;;4.50;;
80104;SDS011;69865;47.648;19.030;2024-02-23T02:18:29;4.77;;;4.77;;
80104;SDS011;69865;47.648;19.030;2024-02-23T02:19:02;5.33;;;5.33;;
80104;SDS011;69865;47.648;19.030;2024-02-23T02:19:34;5.03;;;5.03;;
80104;SDS011;69865;47.648;19.030;2024-02-23T02:20:07;5.33;;;5.30;;
80104;SDS011;69865;47.648;19.030;2024-02-23T02:20:47;4.40;;;4.40;;
80104;SDS011;69865;47.648;19.030;2024-02-23T02:21:23;4.57;;;4.57;;
80104;SDS011;69865;47.648;19.030;2024-02-23T02:21:55;5.10;;;5.10;;
80104;SDS011;69865;47.648;19.030;2024-02-23T02:22:28;4.80;;;4.80;;
80104;SDS011;69865;47.648;19.030;2024-02-23T02:23:00;4.13;;;4.13;;
80104;SDS011;69865;47.648;19.030;2024-02-23T02:23:32;4.60;;;4.60;;
80104;SDS011;69865;47.648;19.030;2024-02-23T02:24:10;4.77;;;4.77;;
80104;SDS011;69865;47.648;19.030;2024-02-23T02:24:45;4.77;;;4.73;;
80104;SDS011;69865;47.648;19.030;2024-02-23T02:25:17;4.53;;;4.53;;
80104;SDS011;69865;47.648;19.030;2024-02-23T02:25:53;4.47;;;4.47;;
80104;SDS011;69865;47.648;19.030;2024-02-23T02:26:25;4.87;;;4.87;;
80104;SDS011;69865;47.648;19.030;2024-02-23T02:26:57;4.67;;;4.67;;
80104;SDS011;69865;47.648;19.030;2024-02-23T02:27:30;4.50;;;4.50;;
80104;SDS011;69865;47.648;19.030;2024-02-23T02:28:05;4.50;;;4.50;;
80104;SDS011;69865;47.648;19.030;2024-02-23T02:28:38;4.73;;;4.73;;
80104;SDS011;69865;47.648;19.030;2024-02-23T02:29:10;4.07;;;4.07;;
80104;SDS011;69865;47.648;19.030;2024-02-23T02:29:42;4.53;;;4.53;;
80104;SDS011;69865;47.648;19.030;2024-02-23T02:30:14;4.93;;;4.93;;
80104;SDS011;69865;47.648;19.030;2024-02-23T02:30:46;4.63;;;4.63;;
80104;SDS011;69865;47.648;19.030;2024-02-23T02:31:18;4.50;;;4.50;;
80104;SDS011;69865;47.648;19.030;2024-02-23T02:31:50;4.40;;;4.40;;
80104;SDS011;69865;47.648;19.030;2024-02-23T02:32:22;4.60;;;4.60;;
80104;SDS011;69865;47.648;19.030;2024-02-23T02:32:55;4.83;;;4.83;;
80104;SDS011;69865;47.648;19.030;2024-02-23T02:33:27;4.53;;;4.53;;
80104;SDS011;69865;47.648;19.030;2024-02-23T02:34:00;4.80;;;4.80;;
80104;SDS011;69865;47.648;19.030;2024-02-23T02:34:32;5.13;;;5.13;;
80104;SDS011;69865;47.648;19.030;2024-02-23T02:35:04;4.93;;;4.93;;
80104;SDS011;69865;47.648;19.030;2024-02-23T02:35:37;4.77;;;4.77;;
80104;SDS011;69865;47.648;19.030;2024-02-23T02:36:09;4.77;;;4.77;;
80104;SDS011;69865;47.648;19.030;2024-02-23T02:36:41;4.83;;;4.83;;
80104;SDS011;69865;47.648;19.030;2024-02-23T02:37:13;4.33;;;4.33;;
80104;SDS011;69865;47.648;19.030;2024-02-23T02:37:45;4.27;;;4.27;;
80104;SDS011;69865;47.648;19.030;2024-02-23T02:38:18;4.57;;;4.57;;
80104;SDS011;69865;47.648;19.030;2024-02-23T02:38:50;4.50;;;4.50;;
80104;SDS011;69865;47.648;19.030;2024-02-23T02:39:22;4.47;;;4.47;;
80104;SDS011;69865;47.648;19.030;2024-02-23T02:39:54;4.70;;;4.70;;
80104;SDS011;69865;47.648;19.030;2024-02-23T02:40:27;4.90;;;4.90;;
80104;SDS011;69865;47.648;19.030;2024-02-23T02:40:59;4.87;;;4.87;;
80104;SDS011;69865;47.648;19.030;2024-02-23T02:41:35;4.77;;;4.77;;
80104;SDS011;69865;47.648;19.030;2024-02-23T02:42:07;4.77;;;4.73;;
80104;SDS011;69865;47.648;19.030;2024-02-23T02:42:41;4.43;;;4.33;;
80104;SDS011;69865;47.648;19.030;2024-02-23T02:43:13;4.23;;;4.23;;
80104;SDS011;69865;47.648;19.030;2024-02-23T02:43:45;4.53;;;4.53;;
80104;SDS011;69865;47.648;19.030;2024-02-23T02:44:17;4.60;;;4.60;;
80104;SDS011;69865;47.648;19.030;2024-02-23T02:44:49;4.77;;;4.73;;
80104;SDS011;69865;47.648;19.030;2024-02-23T02:45:22;4.47;;;4.43;;
80104;SDS011;69865;47.648;19.030;2024-02-23T02:45:54;4.63;;;4.63;;
80104;SDS011;69865;47.648;19.030;2024-02-23T02:46:26;4.90;;;4.90;;
80104;SDS011;69865;47.648;19.030;2024-02-23T02:46:58;4.93;;;4.93;;
80104;SDS011;69865;47.648;19.030;2024-02-23T02:47:30;4.67;;;4.67;;
80104;SDS011;69865;47.648;19.030;2024-02-23T02:48:02;4.60;;;4.60;;
80104;SDS011;69865;47.648;19.030;2024-02-23T02:48:35;4.80;;;4.80;;
80104;SDS011;69865;47.648;19.030;2024-02-23T02:49:07;4.93;;;4.93;;
80104;SDS011;69865;47.648;19.030;2024-02-23T02:49:40;4.83;;;4.83;;
80104;SDS011;69865;47.648;19.030;2024-02-23T02:50:12;5.07;;;5.07;;
80104;SDS011;69865;47.648;19.030;2024-02-23T02:50:44;5.27;;;5.27;;
80104;SDS011;69865;47.648;19.030;2024-02-23T02:51:17;4.93;;;4.93;;
80104;SDS011;69865;47.648;19.030;2024-02-23T02:51:48;4.53;;;4.53;;
80104;SDS011;69865;47.648;19.030;2024-02-23T02:52:20;4.33;;;4.33;;
80104;SDS011;69865;47.648;19.030;2024-02-23T02:52:52;4.90;;;4.90;;
80104;SDS011;69865;47.648;19.030;2024-02-23T02:53:25;5.03;;;5.03;;
80104;SDS011;69865;47.648;19.030;2024-02-23T02:53:57;4.67;;;4.67;;
80104;SDS011;69865;47.648;19.030;2024-02-23T02:54:29;4.53;;;4.53;;
80104;SDS011;69865;47.648;19.030;2024-02-23T02:55:01;4.57;;;4.57;;
80104;SDS011;69865;47.648;19.030;2024-02-23T02:55:33;4.97;;;4.87;;
80104;SDS011;69865;47.648;19.030;2024-02-23T02:56:05;5.23;;;5.13;;
80104;SDS011;69865;47.648;19.030;2024-02-23T02:56:41;5.10;;;5.07;;
80104;SDS011;69865;47.648;19.030;2024-02-23T02:57:14;5.27;;;5.10;;
80104;SDS011;69865;47.648;19.030;2024-02-23T02:57:47;5.47;;;5.27;;
80104;SDS011;69865;47.648;19.030;2024-02-23T02:58:22;5.13;;;5.07;;
80104;SDS011;69865;47.648;19.030;2024-02-23T02:58:54;4.77;;;4.73;;
80104;SDS011;69865;47.648;19.030;2024-02-23T02:59:26;4.60;;;4.40;;
80104;SDS011;69865;47.648;19.030;2024-02-23T02:59:59;4.37;;;4.27;;
80104;SDS011;69865;47.648;19.030;2024-02-23T03:00:31;4.90;;;4.87;;
80104;SDS011;69865;47.648;19.030;2024-02-23T03:01:03;5.27;;;5.13;;
80104;SDS011;69865;47.648;19.030;2024-02-23T03:01:35;5.20;;;5.13;;
80104;SDS011;69865;47.648;19.030;2024-02-23T03:02:07;4.97;;;4.83;;
80104;SDS011;69865;47.648;19.030;2024-02-23T03:02:39;4.60;;;4.60;;
80104;SDS011;69865;47.648;19.030;2024-02-23T03:03:11;4.60;;;4.60;;
80104;SDS011;69865;47.648;19.030;2024-02-23T03:03:43;4.70;;;4.70;;
80104;SDS011;69865;47.648;19.030;2024-02-23T03:04:15;5.13;;;5.13;;
80104;SDS011;69865;47.648;19.030;2024-02-23T03:04:48;5.00;;;5.00;;
80104;SDS011;69865;47.648;19.030;2024-02-23T03:05:20;5.13;;;5.13;;
80104;SDS011;69865;47.648;19.030;2024-02-23T03:05:52;5.10;;;5.10;;
80104;SDS011;69865;47.648;19.030;2024-02-23T03:06:24;5.07;;;5.07;;
80104;SDS011;69865;47.648;19.030;2024-02-23T03:06:57;5.13;;;5.13;;
80104;SDS011;69865;47.648;19.030;2024-02-23T03:07:29;5.10;;;5.10;;
80104;SDS011;69865;47.648;19.030;2024-02-23T03:08:01;4.60;;;4.57;;
80104;SDS011;69865;47.648;19.030;2024-02-23T03:08:33;4.63;;;4.50;;
80104;SDS011;69865;47.648;19.030;2024-02-23T03:09:05;4.67;;;4.67;;
80104;SDS011;69865;47.648;19.030;2024-02-23T03:09:37;4.80;;;4.80;;
80104;SDS011;69865;47.648;19.030;2024-02-23T03:10:09;5.23;;;5.13;;
80104;SDS011;69865;47.648;19.030;2024-02-23T03:10:41;5.13;;;5.00;;
80104;SDS011;69865;47.648;19.030;2024-02-23T03:11:14;5.33;;;5.33;;
80104;SDS011;69865;47.648;19.030;2024-02-23T03:11:46;5.30;;;5.30;;
80104;SDS011;69865;47.648;19.030;2024-02-23T03:12:18;5.17;;;5.10;;
80104;SDS011;69865;47.648;19.030;2024-02-23T03:12:51;5.20;;;5.10;;
80104;SDS011;69865;47.648;19.030;2024-02-23T03:13:23;5.20;;;5.03;;